Time;durP1;ratioP1;P1;durP2;ratioP2;P2;SDS_P1;SDS_P2;PMS_P1;PMS_P2;Temp;Humidity;BMP_temperature;BMP_pressure;BME280_temperature;BME280_humidity;BME280_pressure;Samples;Min_cycle;Max_cycle;Signal;HPM_P1;HPM_P2
2022/06/12 00:02:24;;;;;;;5.17;4.77;;;;;;;19.68;96.77;98970.91;5050882;28;20200;-66
2022/06/12 00:04:51;;;;;;;5.70;5.20;;;;;;;19.64;97.26;98962.31;5064932;28;20196;-67
2022/06/12 00:07:20;;;;;;;6.88;5.68;;;;;;;19.65;97.32;98963.16;5058546;28;20436;-67
2022/06/12 00:09:46;;;;;;;5.53;5.03;;;;;;;19.75;96.12;98960.25;5069408;28;20223;-67
2022/06/12 00:12:13;;;;;;;5.90;5.40;;;;;;;19.82;95.99;98959.19;5069059;28;20638;-67
2022/06/12 00:14:41;;;;;;;5.23;4.83;;;;;;;19.82;95.94;98963.53;5069426;28;20219;-66
2022/06/12 00:17:08;;;;;;;5.87;4.93;;;;;;;19.86;95.81;98967.78;5069321;28;20192;-66
2022/06/12 00:19:35;;;;;;;5.10;4.60;;;;;;;19.84;95.00;98974.75;5063938;28;20199;-66
2022/06/12 00:22:03;;;;;;;5.37;4.93;;;;;;;19.85;94.64;98973.88;5067178;28;20194;-66
2022/06/12 00:24:31;;;;;;;5.50;5.00;;;;;;;19.88;94.85;98965.97;5068204;28;20192;-66
2022/06/12 00:26:59;;;;;;;5.33;4.93;;;;;;;19.90;94.54;98959.81;5068147;28;20187;-65
2022/06/12 00:29:28;;;;;;;5.13;4.72;;;;;;;19.93;94.03;98951.91;5064226;28;20444;-65
2022/06/12 00:31:59;;;;;;;5.33;4.93;;;;;;;19.93;93.43;98956.25;5066582;28;20183;-66
2022/06/12 00:34:30;;;;;;;5.10;4.57;;;;;;;19.93;93.71;98951.91;5064954;28;20314;-66
2022/06/12 00:36:58;;;;;;;4.70;4.40;;;;;;;19.87;94.14;98948.59;5067948;28;20743;-66
2022/06/12 00:39:26;;;;;;;5.27;4.87;;;;;;;19.86;95.00;98960.78;5069282;28;20214;-66
2022/06/12 00:41:56;;;;;;;5.33;4.47;;;;;;;19.84;95.39;98954.75;5069203;28;20188;-67
2022/06/12 00:44:26;;;;;;;6.73;4.73;;;;;;;19.78;95.23;98938.44;5069098;28;20198;-66
2022/06/12 00:46:57;;;;;;;5.20;4.80;;;;;;;19.87;94.68;98953.81;5069193;28;20216;-67
2022/06/12 00:49:27;;;;;;;4.80;4.40;;;;;;;19.82;95.17;98951.34;5069339;28;20180;-65
2022/06/12 00:51:58;;;;;;;5.40;4.67;;;;;;;19.73;95.52;98940.34;5062255;28;20188;-66
2022/06/12 00:54:25;;;;;;;4.53;4.13;;;;;;;19.83;95.56;98953.03;5051481;28;20220;-67
2022/06/12 00:56:57;;;;;;;4.83;4.40;;;;;;;19.84;95.30;98949.56;5052731;28;20204;-66
2022/06/12 00:59:34;;;;;;;4.97;4.57;;;;;;;19.86;95.61;98952.13;5052955;28;20215;-67
2022/06/12 01:02:01;;;;;;;5.27;4.87;;;;;;;19.84;96.01;98956.50;5052677;28;20586;-67
2022/06/12 01:07:16;;;;;;;4.50;4.20;;;;;;;19.90;94.64;98951.13;5052846;28;20187;-67
2022/06/12 01:09:45;;;;;;;5.53;4.73;;;;;;;19.86;95.15;98932.09;5052719;28;20228;-67
2022/06/12 01:12:18;;;;;;;4.93;4.53;;;;;;;19.83;95.06;98947.00;5052625;28;20282;-67
2022/06/12 01:14:50;;;;;;;4.40;4.03;;;;;;;19.82;94.85;98938.31;5052640;28;20227;-67
2022/06/12 01:17:18;;;;;;;4.67;4.27;;;;;;;19.79;94.26;98945.38;5069553;28;20199;-66
2022/06/12 01:19:51;;;;;;;4.40;4.03;;;;;;;19.73;95.29;98938.59;5072655;28;20191;-67
2022/06/12 01:22:54;;;;;;;5.10;4.60;;;;;;;19.70;95.01;98936.06;5072525;28;20195;-67
2022/06/12 01:26:00;;;;;;;4.67;4.27;;;;;;;19.72;95.61;98936.03;5072946;28;20586;-66
2022/06/12 01:28:42;;;;;;;5.30;4.90;;;;;;;19.71;95.86;98935.19;5053333;28;20196;-66
2022/06/12 01:31:20;;;;;;;5.25;4.80;;;;;;;19.68;96.08;98937.88;5066513;28;20445;-66
2022/06/12 01:33:58;;;;;;;5.00;4.60;;;;;;;19.74;95.82;98932.47;5065010;28;20219;-67
2022/06/12 01:36:32;;;;;;;4.63;4.30;;;;;;;19.65;95.88;98934.50;5072119;28;20195;-66
2022/06/12 01:39:07;;;;;;;4.80;4.40;;;;;;;19.67;95.79;98935.28;5071536;28;20195;-66
2022/06/12 01:41:39;;;;;;;4.63;4.07;;;;;;;19.61;96.09;98940.72;5055639;28;20676;-67
2022/06/12 01:44:14;;;;;;;4.33;4.00;;;;;;;19.58;96.20;98933.84;5063526;28;20203;-66
2022/06/12 01:46:49;;;;;;;4.93;4.10;;;;;;;19.58;96.35;98928.63;5065143;28;20199;-65
2022/06/12 01:49:25;;;;;;;5.67;4.90;;;;;;;19.59;96.85;98924.25;5069821;28;20198;-66
2022/06/12 01:52:00;;;;;;;4.57;4.17;;;;;;;19.56;96.97;98929.56;5068862;28;20262;-56
2022/06/12 01:54:32;;;;;;;4.83;3.83;;;;;;;19.57;96.82;98923.44;5071092;28;20194;-56
2022/06/12 01:57:05;;;;;;;5.47;4.67;;;;;;;19.53;96.86;98935.69;5071386;28;20201;-57
2022/06/12 01:59:40;;;;;;;6.70;4.40;;;;;;;19.53;97.63;98946.13;5068676;28;20316;-57
2022/06/12 02:02:14;;;;;;;4.67;4.27;;;;;;;19.54;97.32;98937.41;5071083;28;20184;-56
2022/06/12 02:04:53;;;;;;;5.55;4.82;;;;;;;19.59;97.12;98932.91;5069489;28;20935;-56
2022/06/12 02:07:26;;;;;;;8.60;4.67;;;;;;;19.57;96.70;98928.66;5069591;28;20191;-66
2022/06/12 02:09:59;;;;;;;7.17;4.50;;;;;;;19.58;96.62;98939.06;5068411;28;20247;-66
2022/06/12 02:15:24;;;;;;;8.27;4.73;;;;;;;19.63;96.98;98936.28;5068506;28;20296;-66
2022/06/12 02:17:57;;;;;;;4.77;4.30;;;;;;;19.54;97.54;98939.16;5068431;28;20281;-66
2022/06/12 02:20:30;;;;;;;6.03;5.10;;;;;;;19.59;97.43;98937.28;5070782;28;20277;-67
2022/06/12 02:22:58;;;;;;;4.63;4.20;;;;;;;19.61;97.03;98938.97;5068822;28;20634;-67
2022/06/12 02:25:29;;;;;;;5.97;5.37;;;;;;;19.58;97.77;98949.47;5069425;28;20450;-65
2022/06/12 02:28:01;;;;;;;5.67;5.17;;;;;;;19.67;98.01;98958.75;5051361;28;20548;-66
2022/06/12 02:30:32;;;;;;;4.73;4.37;;;;;;;19.65;98.70;98945.78;5051399;28;20640;-66
2022/06/12 02:33:03;;;;;;;5.20;4.70;;;;;;;19.68;98.23;98963.06;5051006;28;20598;-67
2022/06/12 02:35:39;;;;;;;5.50;5.10;;;;;;;19.67;98.64;98969.19;5050989;28;20224;-66
2022/06/12 02:38:12;;;;;;;5.27;4.80;;;;;;;19.62;99.18;98964.09;5051306;28;20651;-66
2022/06/12 02:40:42;;;;;;;6.20;4.77;;;;;;;19.61;99.36;98961.56;5051113;28;20269;-66
2022/06/12 02:43:14;;;;;;;6.90;5.10;;;;;;;19.58;99.84;98967.72;5051003;28;20196;-66
2022/06/12 02:45:49;;;;;;;5.67;5.17;;;;;;;19.53;100.00;98948.72;5050749;28;20188;-67
2022/06/12 02:48:17;;;;;;;5.97;5.27;;;;;;;19.49;100.00;98951.47;5051102;28;20246;-67
2022/06/12 02:50:56;;;;;;;5.77;5.20;;;;;;;19.41;100.00;98954.31;5050856;28;20203;-67
2022/06/12 02:53:36;;;;;;;8.73;5.83;;;;;;;19.42;100.00;98959.44;5050817;28;20203;-67
2022/06/12 02:56:12;;;;;;;6.20;5.27;;;;;;;19.38;100.00;98957.84;5050594;28;20219;-67
2022/06/12 02:58:51;;;;;;;6.40;5.80;;;;;;;19.43;100.00;98952.50;5050430;28;20203;-67
2022/06/12 03:01:25;;;;;;;6.27;5.77;;;;;;;19.39;100.00;98954.31;5050515;28;20442;-66
2022/06/12 03:03:55;;;;;;;5.27;4.87;;;;;;;19.36;100.00;98953.53;5050434;28;20446;-66
2022/06/12 03:06:26;;;;;;;6.33;5.77;;;;;;;19.28;100.00;98953.72;5050382;28;20204;-66
2022/06/12 03:08:56;;;;;;;6.57;5.57;;;;;;;19.32;100.00;98944.94;5050192;28;20223;-66
2022/06/12 03:11:25;;;;;;;5.90;5.30;;;;;;;19.36;100.00;98945.72;5050647;28;20210;-67
2022/06/12 03:13:54;;;;;;;6.60;5.50;;;;;;;19.36;100.00;98943.97;5050443;28;20274;-68
2022/06/12 03:16:24;;;;;;;6.20;5.60;;;;;;;19.37;100.00;98942.22;5049859;28;20686;-67
2022/06/12 03:18:56;;;;;;;5.83;5.23;;;;;;;19.38;100.00;98949.16;5049656;28;20254;-67
2022/06/12 03:21:30;;;;;;;9.60;6.30;;;;;;;19.41;100.00;98941.28;5050584;28;20199;-67
2022/06/12 03:24:12;;;;;;;6.15;5.65;;;;;;;19.41;100.00;98942.13;5056615;28;20437;-67
2022/06/12 03:26:46;;;;;;;6.10;5.60;;;;;;;19.41;100.00;98938.66;5070237;28;20195;-67
2022/06/12 03:29:22;;;;;;;6.43;5.20;;;;;;;19.37;100.00;98942.22;5070375;28;20195;-67
2022/06/12 03:31:57;;;;;;;6.27;5.77;;;;;;;19.37;100.00;98934.38;5070214;28;20199;-67
2022/06/12 03:34:33;;;;;;;6.67;6.07;;;;;;;19.34;100.00;98934.47;5070567;28;20648;-67
2022/06/12 03:37:06;;;;;;;6.27;5.73;;;;;;;19.36;100.00;98927.50;5070492;28;20187;-67
2022/06/12 03:39:41;;;;;;;7.50;6.00;;;;;;;19.36;100.00;98938.78;5070388;28;20195;-66
2022/06/12 03:42:18;;;;;;;7.33;6.03;;;;;;;19.04;100.00;98884.09;5070534;28;20226;-66
2022/06/12 03:44:53;;;;;;;6.63;6.03;;;;;;;19.29;100.00;98947.63;5070334;28;20578;-66
2022/06/12 03:47:29;;;;;;;6.93;6.30;;;;;;;19.37;100.00;98952.63;5070291;28;20554;-66
2022/06/12 03:50:02;;;;;;;6.27;5.80;;;;;;;19.36;100.00;98943.13;5070286;28;20198;-66
2022/06/12 03:52:34;;;;;;;6.50;5.53;;;;;;;19.47;100.00;98943.72;5070257;28;20214;-66
2022/06/12 03:55:07;;;;;;;6.23;5.73;;;;;;;19.48;100.00;98948.00;5069398;28;20674;-66
2022/06/12 03:57:53;;;;;;;6.63;6.07;;;;;;;19.52;100.00;98940.97;5070405;28;20925;-66
2022/06/12 04:00:27;;;;;;;6.82;6.22;;;;;;;19.48;100.00;98932.38;5069903;28;20425;-66
2022/06/12 04:02:59;;;;;;;6.40;5.80;;;;;;;19.59;100.00;98950.31;5070059;28;20186;-67
2022/06/12 04:05:31;;;;;;;6.50;6.00;;;;;;;19.63;100.00;98944.13;5069977;28;20211;-66
2022/06/12 04:08:01;;;;;;;6.77;5.60;;;;;;;19.71;99.70;98936.94;5069150;28;20217;-66
2022/06/12 04:10:33;;;;;;;6.73;5.80;;;;;;;19.70;99.32;98936.06;5069845;28;20706;-66
2022/06/12 04:13:00;;;;;;;7.90;5.80;;;;;;;19.64;99.83;98949.28;5069767;28;20187;-66
2022/06/12 04:15:32;;;;;;;8.90;6.47;;;;;;;19.67;100.00;98943.97;5069637;28;20717;-66
2022/06/12 04:18:01;;;;;;;6.93;6.20;;;;;;;19.71;99.39;98942.13;5069980;28;20615;-66
2022/06/12 04:20:35;;;;;;;6.73;6.13;;;;;;;19.72;99.11;98934.25;5069935;28;20210;-65
2022/06/12 04:23:06;;;;;;;7.00;6.30;;;;;;;19.69;99.59;98946.56;5069870;28;20188;-66
2022/06/12 04:25:41;;;;;;;8.17;6.13;;;;;;;19.72;99.59;98949.91;5069758;28;20202;-66
2022/06/12 04:28:25;;;;;;;6.27;5.67;;;;;;;19.70;99.82;98945.63;5070138;28;20687;-66
2022/06/12 04:30:53;;;;;;;7.40;6.70;;;;;;;19.77;100.00;98949.78;5072008;28;20191;-65
2022/06/12 04:33:29;;;;;;;6.60;6.10;;;;;;;19.78;99.59;98949.72;5070630;28;20225;-67
2022/06/12 04:35:59;;;;;;;6.43;5.83;;;;;;;19.75;98.90;98948.97;5070365;28;20207;-67
2022/06/12 04:38:28;;;;;;;6.60;6.00;;;;;;;19.83;99.41;98955.66;5073015;28;20195;-67
2022/06/12 04:40:55;;;;;;;9.10;6.70;;;;;;;19.69;99.69;98930.91;5073153;28;20199;-67
2022/06/12 04:43:22;;;;;;;7.67;7.03;;;;;;;19.87;99.69;98966.84;5073269;28;20206;-67
2022/06/12 04:45:50;;;;;;;7.67;6.87;;;;;;;19.88;99.19;98965.97;5073236;28;20203;-67
2022/06/12 04:48:24;;;;;;;7.33;6.73;;;;;;;19.90;99.87;98969.38;5073293;28;20548;-67
2022/06/12 04:50:52;;;;;;;7.60;7.00;;;;;;;19.93;99.37;98983.19;5066858;28;20199;-66
2022/06/12 04:53:19;;;;;;;7.87;7.17;;;;;;;19.92;99.72;98976.25;5070299;28;20179;-67
2022/06/12 04:55:46;;;;;;;8.03;7.27;;;;;;;19.92;99.62;98975.38;5072602;28;20212;-67
2022/06/12 04:58:13;;;;;;;8.02;7.03;;;;;;;19.96;99.06;98974.41;5072168;28;20369;-67
2022/06/12 05:00:40;;;;;;;8.20;6.90;;;;;;;19.92;100.00;98983.22;5072547;28;20685;-67
2022/06/12 05:03:07;;;;;;;8.20;7.50;;;;;;;19.94;99.66;98981.44;5072456;28;20206;-67
2022/06/12 05:05:34;;;;;;;7.43;6.73;;;;;;;19.90;99.46;98985.88;5072449;28;20237;-68
2022/06/12 05:08:02;;;;;;;8.27;7.50;;;;;;;19.92;99.46;98991.03;5064603;28;20191;-67
2022/06/12 05:10:29;;;;;;;7.63;7.03;;;;;;;19.90;99.32;98995.44;5072256;28;20219;-67
2022/06/12 05:12:56;;;;;;;7.80;7.10;;;;;;;19.90;99.28;98990.22;5072499;28;20195;-67
2022/06/12 05:15:23;;;;;;;7.70;7.03;;;;;;;19.81;99.51;98998.31;5072656;28;20195;-65
2022/06/12 05:17:50;;;;;;;7.87;7.10;;;;;;;19.82;99.88;98998.28;5070842;28;20358;-66
2022/06/12 05:20:21;;;;;;;8.02;7.32;;;;;;;19.87;100.00;99006.81;5071443;28;20455;-66
2022/06/12 05:22:48;;;;;;;7.80;7.13;;;;;;;19.93;99.54;99011.88;5072730;28;20200;-66
2022/06/12 05:25:18;;;;;;;7.73;6.57;;;;;;;19.95;99.14;99014.41;5072477;28;20211;-66
2022/06/12 05:27:47;;;;;;;7.57;6.93;;;;;;;19.95;99.37;99012.66;5072344;28;20192;-67
2022/06/12 05:30:16;;;;;;;7.83;7.13;;;;;;;19.97;99.34;99020.44;5072297;28;20195;-66
2022/06/12 05:32:44;;;;;;;8.13;7.43;;;;;;;20.00;99.03;99020.34;5072741;28;20198;-67
2022/06/12 05:35:12;;;;;;;8.93;7.23;;;;;;;19.95;99.57;99020.50;5072291;28;20224;-66
2022/06/12 05:37:39;;;;;;;8.17;7.47;;;;;;;20.00;99.67;99016.00;5072451;28;20187;-66
2022/06/12 05:40:10;;;;;;;7.33;6.73;;;;;;;20.03;100.00;99009.81;5071358;28;20223;-66
2022/06/12 05:42:39;;;;;;;7.97;7.10;;;;;;;20.07;99.49;99011.47;5072042;28;20191;-66
2022/06/12 05:45:07;;;;;;;7.80;7.17;;;;;;;20.10;99.43;99011.38;5071937;28;20184;-66
2022/06/12 05:47:35;;;;;;;7.67;6.97;;;;;;;20.09;99.53;99009.66;5071869;28;20261;-66
2022/06/12 05:50:02;;;;;;;7.50;6.90;;;;;;;20.07;98.93;99010.59;5071073;28;20202;-66
2022/06/12 05:52:29;;;;;;;8.17;7.47;;;;;;;20.06;99.35;99007.13;5070964;28;20196;-66
2022/06/12 05:54:55;;;;;;;7.77;6.97;;;;;;;20.05;98.92;99007.19;5072295;28;20180;-67
2022/06/12 05:57:22;;;;;;;8.25;7.65;;;;;;;20.14;98.88;99006.91;5068467;28;20810;-66
2022/06/12 05:59:50;;;;;;;8.37;7.30;;;;;;;20.25;98.49;99021.38;5071645;28;20257;-66
2022/06/12 06:02:17;;;;;;;8.20;7.50;;;;;;;20.35;97.36;99012.38;5071326;28;20690;-66
2022/06/12 06:04:44;;;;;;;7.33;6.73;;;;;;;20.38;96.88;99017.47;5064597;28;20204;-66
2022/06/12 06:07:12;;;;;;;7.97;7.27;;;;;;;20.43;97.03;99004.31;5051784;28;20620;-66
2022/06/12 06:09:39;;;;;;;8.23;7.53;;;;;;;20.55;96.93;99011.72;5051373;28;20240;-66
2022/06/12 06:12:06;;;;;;;8.20;7.60;;;;;;;20.67;96.53;99019.19;5051250;28;20257;-66
2022/06/12 06:14:33;;;;;;;8.30;7.57;;;;;;;20.70;95.89;99019.09;5051784;28;20192;-67
2022/06/12 06:17:01;;;;;;;8.80;7.87;;;;;;;20.72;95.55;99019.03;5052558;28;20220;-66
2022/06/12 06:19:28;;;;;;;8.95;8.25;;;;;;;20.74;96.13;99022.47;5050926;28;20795;-66
2022/06/12 06:21:56;;;;;;;8.23;7.47;;;;;;;20.66;94.93;99024.47;5051592;28;20192;-66
2022/06/12 06:24:23;;;;;;;8.73;7.93;;;;;;;20.76;95.16;99029.34;5058578;28;20200;-69
2022/06/12 06:26:50;;;;;;;8.90;8.17;;;;;;;20.70;95.42;99003.41;5070252;28;20175;-66
2022/06/12 06:29:16;;;;;;;10.10;9.20;;;;;;;20.87;95.72;99039.44;5064946;28;20184;-66
2022/06/12 06:31:43;;;;;;;8.87;7.97;;;;;;;20.68;94.15;99036.56;5070353;28;20270;-65
2022/06/12 06:34:11;;;;;;;8.00;7.40;;;;;;;20.81;94.58;99040.50;5070487;28;20192;-66
2022/06/12 06:36:39;;;;;;;9.07;8.27;;;;;;;20.89;93.94;99035.00;5070471;28;20234;-67
2022/06/12 06:39:06;;;;;;;9.40;8.43;;;;;;;20.91;93.26;99039.28;5070622;28;20183;-67
2022/06/12 06:41:33;;;;;;;8.77;7.97;;;;;;;20.95;92.92;99042.66;5068093;28;20191;-67
2022/06/12 06:46:45;;;;;;;9.10;8.30;;;;;;;20.93;93.72;99039.25;5070950;28;20253;-67
2022/06/12 06:49:13;;;;;;;10.53;8.93;;;;;;;20.86;94.94;99056.00;5070817;28;20206;-67
2022/06/12 06:51:40;;;;;;;11.07;9.98;;;;;;;20.90;95.96;99062.84;5069938;28;20457;-66
2022/06/12 06:54:07;;;;;;;12.80;11.27;;;;;;;20.92;95.42;99059.28;5068115;28;20223;-66
2022/06/12 06:56:33;;;;;;;11.17;10.17;;;;;;;20.93;95.06;99062.75;5065792;28;20323;-67
2022/06/12 06:59:00;;;;;;;9.43;8.53;;;;;;;20.93;95.84;99070.59;5070065;28;20180;-66
2022/06/12 07:01:27;;;;;;;10.07;9.17;;;;;;;20.93;95.46;99073.19;5067365;28;20176;-67
2022/06/12 07:03:54;;;;;;;8.47;7.77;;;;;;;20.92;94.45;99084.53;5069887;28;20653;-66
2022/06/12 07:06:22;;;;;;;9.77;8.80;;;;;;;20.99;94.61;99081.66;5068691;28;20245;-66
2022/06/12 07:08:49;;;;;;;10.13;9.10;;;;;;;21.12;95.88;99075.16;5068025;28;20196;-66
2022/06/12 07:11:18;;;;;;;10.43;9.13;;;;;;;21.29;95.02;99074.59;5068491;28;20195;-66
2022/06/12 07:13:45;;;;;;;10.65;9.77;;;;;;;21.46;95.10;99066.19;5062547;28;20570;-66
2022/06/12 07:16:12;;;;;;;9.07;8.27;;;;;;;21.68;94.39;99070.63;5069593;28;20216;-67
2022/06/12 07:18:39;;;;;;;9.53;8.63;;;;;;;21.72;94.05;99067.00;5070150;28;20695;-66
2022/06/12 07:21:06;;;;;;;9.53;8.73;;;;;;;21.80;93.94;99074.56;5070596;28;20254;-66
2022/06/12 07:23:34;;;;;;;9.33;8.53;;;;;;;21.90;93.51;99072.50;5069711;28;20192;-66
2022/06/12 07:26:04;;;;;;;9.03;8.30;;;;;;;21.89;92.99;99089.13;5069172;28;20658;-66
2022/06/12 07:28:34;;;;;;;11.47;10.37;;;;;;;22.00;93.92;99082.56;5069609;28;20211;-66
2022/06/12 07:31:01;;;;;;;9.20;8.37;;;;;;;21.99;91.76;99073.03;5065940;28;20214;-66
2022/06/12 07:33:28;;;;;;;9.63;8.63;;;;;;;21.98;92.47;99083.53;5064734;28;20211;-66
2022/06/12 07:35:55;;;;;;;8.70;7.97;;;;;;;21.97;91.61;99087.06;5069353;28;20222;-67
2022/06/12 07:38:25;;;;;;;8.67;7.87;;;;;;;21.88;91.12;99082.16;5069204;28;20183;-66
2022/06/12 07:40:57;;;;;;;8.93;8.03;;;;;;;21.92;91.30;99084.59;5067139;28;20175;-66
2022/06/12 07:43:24;;;;;;;10.13;9.17;;;;;;;21.84;90.68;99086.63;5069769;28;20180;-67
2022/06/12 07:45:52;;;;;;;11.87;10.67;;;;;;;21.71;90.90;99098.44;5067364;28;20195;-65
2022/06/12 07:48:19;;;;;;;10.27;8.73;;;;;;;21.62;91.93;99101.34;5069804;28;20207;-66
2022/06/12 07:50:47;;;;;;;10.37;9.43;;;;;;;21.67;93.19;99107.31;5063387;28;20449;-66
2022/06/12 07:53:15;;;;;;;9.10;8.40;;;;;;;21.66;91.98;99108.19;5068349;28;20197;-67
2022/06/12 07:55:43;;;;;;;9.83;8.60;;;;;;;21.76;92.31;99099.97;5066849;28;20211;-66
2022/06/12 07:58:11;;;;;;;10.27;8.67;;;;;;;21.71;92.36;99108.88;5066154;28;20576;-66
2022/06/12 08:00:39;;;;;;;11.27;10.17;;;;;;;21.72;93.40;99106.22;5067559;28;20199;-68
2022/06/12 08:03:07;;;;;;;11.17;8.20;;;;;;;21.63;94.00;99110.91;5069016;28;20790;-67
2022/06/12 08:05:35;;;;;;;8.07;7.37;;;;;;;21.52;94.27;99100.84;5072868;28;20191;-68
2022/06/12 08:08:02;;;;;;;9.33;8.17;;;;;;;21.42;94.85;99117.75;5073327;28;20187;-66
2022/06/12 08:10:29;;;;;;;8.63;7.80;;;;;;;21.42;95.31;99104.66;5072755;28;20438;-68
2022/06/12 08:12:56;;;;;;;9.07;8.17;;;;;;;;;;5073556;28;20187;-65
2022/06/12 08:15:28;;;;;;;7.57;6.87;;;;;;;21.33;95.63;99125.03;5071543;28;20191;-68
2022/06/12 08:17:56;;;;;;;7.10;6.50;;;;;;;21.25;95.80;99121.81;5071715;28;20195;-66
2022/06/12 08:20:28;;;;;;;7.33;6.63;;;;;;;21.29;96.24;99123.44;5073638;28;20188;-66
2022/06/12 08:22:59;;;;;;;7.83;7.00;;;;;;;21.41;96.52;99126.47;5073370;28;20195;-67
2022/06/12 08:25:26;;;;;;;8.73;6.83;;;;;;;21.54;96.19;99129.53;5073407;28;20187;-67
2022/06/12 08:27:53;;;;;;;7.87;7.27;;;;;;;21.60;96.16;99132.78;5073487;28;20570;-67
2022/06/12 08:30:21;;;;;;;7.30;6.70;;;;;;;21.59;95.67;99127.63;5073559;28;20206;-66
2022/06/12 08:32:52;;;;;;;8.53;7.83;;;;;;;21.63;95.93;99132.69;5073242;28;20195;-67
2022/06/12 08:35:25;;;;;;;7.90;7.10;;;;;;;21.65;95.35;99124.78;5069768;28;20191;-67
2022/06/12 08:37:53;;;;;;;7.80;7.18;;;;;;;21.57;95.90;99132.03;5075914;28;20935;-64
2022/06/12 08:40:29;;;;;;;8.32;7.63;;;;;;;21.87;95.67;99128.41;5072296;28;20431;-67
2022/06/12 08:43:03;;;;;;;8.30;7.50;;;;;;;21.99;94.35;99125.34;5073032;28;20673;-66
2022/06/12 08:45:37;;;;;;;8.00;7.37;;;;;;;22.21;93.24;99136.75;5072989;28;20195;-66
2022/06/12 08:48:11;;;;;;;9.27;8.20;;;;;;;22.33;93.36;99138.91;5072941;28;20202;-66
2022/06/12 08:50:45;;;;;;;8.47;7.70;;;;;;;22.41;92.69;99133.41;5072959;28;20271;-67
2022/06/12 08:53:19;;;;;;;8.10;7.40;;;;;;;22.30;93.03;99139.00;5072673;28;20696;-56
2022/06/12 08:55:51;;;;;;;8.20;7.50;;;;;;;22.46;91.80;99155.03;5072756;28;20191;-57
2022/06/12 08:58:26;;;;;;;6.90;6.40;;;;;;;22.42;92.21;99142.94;5068152;28;20205;-56
2022/06/12 09:00:54;;;;;;;6.93;6.33;;;;;;;22.46;90.96;99141.94;5067891;28;20561;-56
2022/06/12 09:03:25;;;;;;;7.73;6.37;;;;;;;22.54;90.83;99136.41;5069513;28;20253;-55
2022/06/12 09:06:00;;;;;;;8.27;7.47;;;;;;;22.67;91.54;99148.16;5064648;28;20449;-56
2022/06/12 09:08:31;;;;;;;6.47;5.97;;;;;;;22.83;89.57;99138.78;5070129;28;20194;-57
2022/06/12 09:11:05;;;;;;;6.83;6.17;;;;;;;22.96;89.01;99149.66;5066591;28;20698;-56
2022/06/12 09:13:53;;;;;;;6.10;5.53;;;;;;;23.05;88.87;99146.66;5067004;28;20611;-57
2022/06/12 09:16:38;;;;;;;7.33;6.63;;;;;;;23.15;87.99;99148.88;5070570;28;20214;-56
2022/06/12 09:19:18;;;;;;;8.07;6.37;;;;;;;23.01;87.27;99152.94;5070210;28;20273;-57
2022/06/12 09:21:59;;;;;;;7.40;6.70;;;;;;;23.00;88.20;99153.84;5071345;28;20274;-56
2022/06/12 09:24:46;;;;;;;9.00;8.10;;;;;;;22.84;88.35;99154.47;5051916;28;20248;-57
2022/06/12 09:27:25;;;;;;;6.27;5.77;;;;;;;22.85;88.07;99153.53;5052071;28;20196;-57
2022/06/12 09:30:13;;;;;;;7.27;6.67;;;;;;;22.67;88.01;99129.81;5051994;28;20512;-56
2022/06/12 09:32:51;;;;;;;7.65;6.95;;;;;;;22.93;88.43;99163.75;5050606;28;20465;-57
2022/06/12 09:35:39;;;;;;;7.20;6.60;;;;;;;22.99;86.58;99160.84;5051032;28;20879;-57
2022/06/12 09:38:32;;;;;;;7.27;6.57;;;;;;;23.17;87.79;99154.91;5051550;28;20255;-55
2022/06/12 09:41:17;;;;;;;7.20;6.33;;;;;;;23.24;86.75;99161.59;5051659;28;20281;-57
2022/06/12 09:44:11;;;;;;;6.93;6.33;;;;;;;23.01;86.69;99150.31;5051674;28;20275;-55
2022/06/12 09:46:55;;;;;;;6.63;5.97;;;;;;;23.01;86.15;99152.94;5051729;28;20188;-56
2022/06/12 09:49:47;;;;;;;7.23;6.53;;;;;;;23.06;87.25;99144.00;5051789;28;20196;-59
2022/06/12 09:52:56;;;;;;;6.60;6.10;;;;;;;22.96;84.94;99136.56;5051791;28;20188;-56
2022/06/12 09:55:39;;;;;;;6.40;5.90;;;;;;;22.99;85.40;99142.50;5049867;28;20204;-57
2022/06/12 09:58:22;;;;;;;6.20;5.70;;;;;;;22.94;85.51;99148.88;5051506;28;20219;-57
2022/06/12 10:00:56;;;;;;;6.50;5.97;;;;;;;22.60;86.45;99147.53;5051581;28;20563;-56
2022/06/12 10:03:35;;;;;;;7.30;6.60;;;;;;;22.70;86.36;99156.75;5051458;28;20203;-57
2022/06/12 10:06:24;;;;;;;6.73;6.13;;;;;;;22.81;86.01;99136.25;5051659;28;20635;-55
2022/06/12 10:09:04;;;;;;;8.03;6.03;;;;;;;22.89;85.50;99149.88;5051276;28;20536;-56
2022/06/12 10:11:44;;;;;;;9.40;5.80;;;;;;;22.85;84.40;99144.84;5051021;28;20278;-56
2022/06/12 10:14:20;;;;;;;6.90;6.27;;;;;;;22.88;84.98;99147.34;5050912;28;20202;-56
2022/06/12 10:17:02;;;;;;;6.37;5.77;;;;;;;22.87;85.12;99154.34;5050753;28;20304;-56
2022/06/12 10:19:40;;;;;;;6.23;5.73;;;;;;;22.76;84.78;99158.28;5050618;28;20200;-55
2022/06/12 10:22:24;;;;;;;6.20;5.70;;;;;;;22.72;86.16;99149.69;5050862;28;20228;-56
2022/06/12 10:25:10;;;;;;;6.90;6.20;;;;;;;22.90;85.68;99148.13;5050888;28;20720;-57
2022/06/12 10:28:05;;;;;;;6.50;5.90;;;;;;;22.87;85.29;99151.72;5050387;28;20192;-57
2022/06/12 10:31:08;;;;;;;7.13;6.50;;;;;;;23.06;85.35;99141.38;5049934;28;20423;-57
2022/06/12 10:34:14;;;;;;;6.30;5.80;;;;;;;23.32;84.60;99158.69;5050133;28;20436;-57
2022/06/12 10:37:24;;;;;;;6.43;5.93;;;;;;;23.31;83.28;99154.34;5050696;28;20216;-57
2022/06/12 10:43:09;;;;;;;6.60;6.10;;;;;;;23.22;83.88;99146.84;5041534;28;20199;-57
2022/06/12 10:45:46;;;;;;;6.50;6.00;;;;;;;23.23;84.31;99138.06;5050098;28;20489;-57
2022/06/12 10:48:37;;;;;;;7.00;6.43;;;;;;;22.98;84.23;99140.81;5050668;28;20192;-56
2022/06/12 10:51:29;;;;;;;6.27;5.77;;;;;;;23.03;85.71;99136.25;5050690;28;20231;-55
2022/06/12 10:53:58;;;;;;;7.40;6.67;;;;;;;23.09;84.97;99143.00;5050938;28;20203;-57
2022/06/12 10:56:35;;;;;;;7.60;6.70;;;;;;;23.08;85.42;99139.53;5051183;28;20295;-57
2022/06/12 10:59:33;;;;;;;7.63;7.00;;;;;;;23.04;85.42;99132.72;5067575;28;20249;-57
2022/06/12 11:02:28;;;;;;;7.77;7.07;;;;;;;23.10;85.58;99135.06;5068987;28;20270;-57
2022/06/12 11:05:03;;;;;;;7.40;6.80;;;;;;;23.35;86.17;99129.69;5068614;28;20195;-57
2022/06/12 11:07:38;;;;;;;7.13;6.13;;;;;;;23.27;84.70;99135.25;5070031;28;20198;-57
2022/06/12 11:10:17;;;;;;;7.25;6.65;;;;;;;23.22;84.31;99134.59;5066947;28;20457;-57
2022/06/12 11:13:01;;;;;;;6.77;6.27;;;;;;;23.33;84.16;99139.38;5069200;28;20294;-57
2022/06/12 11:16:00;;;;;;;6.37;5.77;;;;;;;23.26;83.10;99140.56;5052401;28;20206;-57
2022/06/12 11:18:37;;;;;;;7.00;6.40;;;;;;;23.16;85.00;99132.22;5053481;28;20204;-57
2022/06/12 11:21:14;;;;;;;8.37;6.33;;;;;;;23.20;84.48;99125.94;5063110;28;20586;-57
2022/06/12 11:24:03;;;;;;;9.23;6.43;;;;;;;23.41;85.64;99132.09;5051602;28;20287;-57
2022/06/12 11:27:10;;;;;;;7.67;6.03;;;;;;;23.39;85.32;99131.31;5069797;28;20256;-57
2022/06/12 11:29:59;;;;;;;6.40;5.90;;;;;;;23.36;85.04;99134.03;5027701;28;20599;-57
2022/06/12 11:32:37;;;;;;;8.03;5.73;;;;;;;23.23;83.66;99128.44;5010661;28;20205;-57
2022/06/12 11:35:15;;;;;;;7.10;6.50;;;;;;;23.16;85.38;99131.34;5057610;28;20206;-56
2022/06/12 11:37:58;;;;;;;7.50;6.50;;;;;;;23.17;85.12;99133.94;5068347;28;20449;-56
2022/06/12 11:40:30;;;;;;;6.40;5.80;;;;;;;23.15;85.01;99134.91;5069767;28;20195;-57
2022/06/12 11:43:10;;;;;;;6.40;5.80;;;;;;;23.07;85.35;99121.25;5061337;28;20195;-56
2022/06/12 11:45:51;;;;;;;6.47;5.97;;;;;;;23.05;85.75;99123.91;5065829;28;20195;-56
2022/06/12 11:48:58;;;;;;;6.23;5.73;;;;;;;23.12;85.39;99132.41;5063578;28;20241;-57
2022/06/12 11:51:36;;;;;;;5.93;5.43;;;;;;;23.14;83.63;99146.28;5065493;28;20283;-56
2022/06/12 11:54:20;;;;;;;6.67;6.07;;;;;;;22.97;85.00;99146.97;5049683;28;20192;-57
2022/06/12 11:56:55;;;;;;;5.57;5.07;;;;;;;23.00;84.69;99159.94;5049466;28;20744;-57
2022/06/12 11:59:37;;;;;;;5.87;5.33;;;;;;;22.84;83.83;99156.22;5049390;28;20196;-57
2022/06/12 12:02:14;;;;;;;5.90;5.40;;;;;;;22.77;84.66;99163.44;5048048;28;20199;-57
2022/06/12 12:05:03;;;;;;;5.82;5.25;;;;;;;22.65;85.71;99148.22;5048375;28;20472;-57
2022/06/12 12:07:49;;;;;;;6.53;6.03;;;;;;;22.58;86.47;99140.63;5048177;28;20803;-57
2022/06/12 12:10:34;;;;;;;6.57;5.97;;;;;;;22.67;87.45;99135.06;5047950;28;20297;-57
2022/06/12 12:13:06;;;;;;;5.73;5.23;;;;;;;22.72;88.88;99139.22;5048003;28;20199;-57
2022/06/12 12:15:39;;;;;;;9.70;5.17;;;;;;;22.78;87.65;99130.25;5048361;28;20203;-57